This is the latest recevied weather packets stored in our database for station/object R6DH-11. If no packets are shown the sender has not sent any weather packets the latest 10 day(s).
| Time | Temp. | Humidity | Pressure | Rain* | Wind** | Luminosity | Snow |
|---|---|---|---|---|---|---|---|
| 1777577827 | 9.44° C | 58% | 1017.9 hPa | - | - | - | - |
| 1777576930 | 9.44° C | 58% | 1018.1 hPa | - | - | - | - |
| 1777576030 | 9.44° C | 57% | 1018.1 hPa | - | - | - | - |
| 1777575130 | 10° C | 55% | 1018.4 hPa | - | - | - | - |
| 1777574229 | 10° C | 53% | 1018.4 hPa | - | - | - | - |
| 1777573329 | 10.56° C | 50% | 1018.4 hPa | - | - | - | - |
| 1777572429 | 10.56° C | 55% | 1018.5 hPa | - | - | - | - |
| 1777571529 | 10° C | 56% | 1018.5 hPa | - | - | - | - |
| 1777570629 | 10° C | 59% | 1018.5 hPa | - | - | - | - |
| 1777569729 | 10° C | 60% | 1018.4 hPa | - | - | - | - |
| 1777568829 | 10.56° C | 59% | 1018.3 hPa | - | - | - | - |
| 1777567929 | 10.56° C | 58% | 1018.1 hPa | - | - | - | - |
| 1777567029 | 11.11° C | 56% | 1018.1 hPa | - | - | - | - |
| 1777566128 | 12.22° C | 52% | 1018.1 hPa | - | - | - | - |
| 1777565228 | 12.22° C | 51% | 1018 hPa | - | - | - | - |
| 1777564328 | 12.78° C | 47% | 1017.9 hPa | - | - | - | - |
| 1777563428 | 13.33° C | 46% | 1017.8 hPa | - | - | - | - |
| 1777562528 | 13.33° C | 44% | 1017.8 hPa | - | - | - | - |
| 1777561628 | 13.89° C | 45% | 1017.8 hPa | - | - | - | - |
| 1777560727 | 13.89° C | 41% | 1017.8 hPa | - | - | - | - |
| 1777559827 | 14.44° C | 38% | 1017.7 hPa | - | - | - | - |
| 1777558927 | 14.44° C | 39% | 1017.9 hPa | - | - | - | - |
| 1777558027 | 15° C | 39% | 1017.8 hPa | - | - | - | - |
| 1777557127 | 15.56° C | 37% | 1017.8 hPa | - | - | - | - |
| 1777556227 | 16.67° C | 34% | 1017.8 hPa | - | - | - | - |
* Rain since midnight (hover to see other rain measurements)
** Current wind speed in m/s (hover to see current wind gust speed)